Bishop International Airport
KFNT : now visible

Airfield :











YOU CAN JOIN US ON...

 
LOGIN :

Register | Disclaimer

   EN    FR    IT 

 









Legend :    VFR   Marginal VFR   IFR   Intensive IFR   Very Intensive IFR
Visi :
Ceiling :
>= 8 km
>= 3000ft
5 to 8 km
1000 to 3000 ft
1500m to 5 km
500 to 1000 ft
800 to 1500m
200 to 500 ft
< 800m
< 200 ft
Symbols :   Thunderstorms  Fog  Heavy snow  Heavy precipitations  Wind > 20 kt






- Airport Elevation : 782 ft
- IATA code : FNT


KFNT - Bishop International

CURRENT METAR :
  • 200353Z AUTO 31006KT 10SM CLR M13/M16 A3037 RMK AO2 SLP299 T11331156

EXPIRED METARs :
  • 200253Z 30005KT 10SM CLR M12/M15 A3036 RMK AO2 SLP296 T11221150 51021
  • 200153Z 30004KT 10SM CLR M11/M14 A3034 RMK AO2 SLP289 T11061139

TAF KFNT
Valid from the 20 at 03:00 until the 21 at 00:00 UTC


200238Z 2003/2024 31005KT P6SM FEW250
FM201900 31006KT P6SM FEW025



MET'MAP, your aeronautical weather chart ! - Copyright ORBIFLY December 2007 - Disclaimer

ORBIFLY MET'MAP TEAM :

Programming & Development : Alexandra Zaïnal
Concept & original design : Baudouin d'Aumeries
Assistance for programming : Marc-Olivier Méhu
Technical & hardware support : Manuel Goepfert

Contact : metmap@orbifly.com




SOURCES & CREDITS :

   NOAA       Earth
Advisory